Time;durP1;ratioP1;P1;durP2;ratioP2;P2;SDS_P1;SDS_P2;PMS_P1;PMS_P2;Temp;Humidity;BMP_temperature;BMP_pressure;BME280_temperature;BME280_humidity;BME280_pressure;Samples;Min_cycle;Max_cycle;Signal;HPM_P1;HPM_P2
2022/06/08 00:01:14;;;;;;;4.32;4.00;;;;;;;;;;2082965;28;20507;-65
2022/06/08 00:02:33;;;;;;;4.50;4.10;;;;;;;;;;2082423;28;20037;-65
2022/06/08 00:03:54;;;;;;;4.07;3.70;;;;;;;;;;2082741;28;20108;-65
2022/06/08 00:05:13;;;;;;;4.53;3.97;;;;;;;;;;2083854;28;20117;-65
2022/06/08 00:06:32;;;;;;;4.28;3.83;;;;;;;;;;2083861;28;20453;-65
2022/06/08 00:07:51;;;;;;;5.70;4.47;;;;;;;;;;2084586;28;20073;-65
2022/06/08 00:09:10;;;;;;;5.85;4.07;;;;;;;;;;2083243;28;20395;-66
2022/06/08 00:10:30;;;;;;;5.10;4.32;;;;;;;;;;2083025;28;20037;-65
2022/06/08 00:11:48;;;;;;;6.57;4.35;;;;;;;;;;2081522;28;20013;-65
2022/06/08 00:13:07;;;;;;;4.57;4.28;;;;;;;;;;2084452;28;20025;-65
2022/06/08 00:14:26;;;;;;;4.95;4.20;;;;;;;;;;2082713;28;20033;-64
2022/06/08 00:15:45;;;;;;;4.43;4.07;;;;;;;;;;2082241;28;20108;-64
2022/06/08 00:17:04;;;;;;;4.93;4.57;;;;;;;;;;2083431;28;20060;-64
2022/06/08 00:18:23;;;;;;;5.38;4.90;;;;;;;;;;2084983;28;20041;-64
2022/06/08 00:19:42;;;;;;;4.28;3.97;;;;;;;;;;2082473;28;20042;-64
2022/06/08 00:21:01;;;;;;;4.72;4.20;;;;;;;;;;2083244;28;20519;-65
2022/06/08 00:22:20;;;;;;;4.97;4.45;;;;;;;;;;2083632;28;20488;-63
2022/06/08 00:23:39;;;;;;;5.10;4.57;;;;;;;;;;2084695;28;20109;-64
2022/06/08 00:24:59;;;;;;;4.93;4.53;;;;;;;;;;2083395;28;20037;-64
2022/06/08 00:26:18;;;;;;;5.40;4.90;;;;;;;;;;2083853;28;20041;-63
2022/06/08 00:27:37;;;;;;;5.32;4.93;;;;;;;;;;2084310;28;20038;-64
2022/06/08 00:28:56;;;;;;;5.10;4.70;;;;;;;;;;2081589;28;20026;-64
2022/06/08 00:30:15;;;;;;;5.10;4.60;;;;;;;;;;2081253;28;20033;-64
2022/06/08 00:31:34;;;;;;;5.32;4.93;;;;;;;;;;2083033;28;20499;-64
2022/06/08 00:32:53;;;;;;;5.05;4.65;;;;;;;;;;2080858;28;20038;-64
2022/06/08 00:34:12;;;;;;;5.63;5.22;;;;;;;;;;2084288;28;20037;-64
2022/06/08 00:35:31;;;;;;;5.00;4.60;;;;;;;;;;2083398;28;20069;-64
2022/06/08 00:36:50;;;;;;;5.18;4.68;;;;;;;;;;2081344;28;20029;-64
2022/06/08 00:38:08;;;;;;;4.90;4.60;;;;;;;;;;2084340;28;20104;-65
2022/06/08 00:39:27;;;;;;;5.65;5.18;;;;;;;;;;2084299;28;20037;-64
2022/06/08 00:41:05;;;;;;;4.75;4.45;;;;;;;;;;2085268;28;20034;-64
2022/06/08 00:42:25;;;;;;;6.18;5.57;;;;;;;;;;2084841;28;20057;-66
2022/06/08 00:43:44;;;;;;;5.70;5.20;;;;;;;;;;2083834;28;20029;-65
2022/06/08 00:45:07;;;;;;;5.97;5.47;;;;;;;;;;2083312;28;20052;-66
2022/06/08 00:46:26;;;;;;;5.88;5.38;;;;;;;;;;2085285;28;20483;-64
2022/06/08 00:47:50;;;;;;;8.52;5.43;;;;;;;;;;2085424;28;20050;-64
2022/06/08 00:49:13;;;;;;;5.40;5.00;;;;;;;;;;2084959;28;20037;-64
2022/06/08 00:50:35;;;;;;;5.35;4.93;;;;;;;;;;2084047;28;20034;-64
2022/06/08 00:51:55;;;;;;;6.13;5.57;;;;;;;;;;2084479;28;20041;-64
2022/06/08 00:53:15;;;;;;;5.50;5.10;;;;;;;;;;2083221;28;20029;-65
2022/06/08 00:54:44;;;;;;;6.13;5.68;;;;;;;;;;2083820;28;20034;-65
2022/06/08 00:56:05;;;;;;;6.13;5.35;;;;;;;;;;2086075;28;20036;-64
2022/06/08 00:57:33;;;;;;;6.75;5.68;;;;;;;;;;2085397;28;20025;-65
2022/06/08 00:58:53;;;;;;;5.82;5.32;;;;;;;;;;2083916;28;20447;-64
2022/06/08 01:00:17;;;;;;;6.85;5.50;;;;;;;;;;2081815;28;20029;-65
2022/06/08 01:01:36;;;;;;;6.22;5.65;;;;;;;;;;2084265;28;20022;-64
2022/06/08 01:02:55;;;;;;;6.15;5.53;;;;;;;;;;2084380;28;20033;-65
2022/06/08 01:04:15;;;;;;;6.10;5.35;;;;;;;;;;2085188;28;20104;-64
2022/06/08 01:05:46;;;;;;;5.82;4.57;;;;;;;;;;2082450;28;20116;-64
2022/06/08 01:07:05;;;;;;;5.95;5.20;;;;;;;;;;2084621;28;20033;-64
2022/06/08 01:08:24;;;;;;;5.80;5.35;;;;;;;;;;2084542;28;20033;-65
2022/06/08 01:09:43;;;;;;;5.45;5.03;;;;;;;;;;2084911;28;20022;-64
2022/06/08 01:11:04;;;;;;;6.78;6.20;;;;;;;;;;2085161;28;20029;-65
2022/06/08 01:12:24;;;;;;;5.65;5.22;;;;;;;;;;2083813;28;20508;-65
2022/06/08 01:13:43;;;;;;;5.40;4.90;;;;;;;;;;2084558;28;20120;-65
2022/06/08 01:15:01;;;;;;;5.10;4.70;;;;;;;;;;2084737;28;20034;-64
2022/06/08 01:16:21;;;;;;;6.07;5.55;;;;;;;;;;2085178;28;20029;-64
2022/06/08 01:17:40;;;;;;;5.15;4.85;;;;;;;;;;2083626;28;20041;-64
2022/06/08 01:19:01;;;;;;;8.68;5.53;;;;;;;;;;2085041;28;20037;-65
2022/06/08 01:20:20;;;;;;;6.68;6.03;;;;;;;;;;2084234;28;20103;-64
2022/06/08 01:21:38;;;;;;;8.77;5.35;;;;;;;;;;2085573;28;20025;-65
2022/06/08 01:22:58;;;;;;;5.35;4.95;;;;;;;;;;2082326;28;20028;-64
2022/06/08 01:24:17;;;;;;;5.40;5.00;;;;;;;;;;2083304;28;20033;-65
2022/06/08 01:25:40;;;;;;;6.53;5.63;;;;;;;;;;2083871;28;20503;-66
2022/06/08 01:27:05;;;;;;;6.65;5.50;;;;;;;;;;2084721;28;20040;-64
2022/06/08 01:28:27;;;;;;;7.05;6.10;;;;;;;;;;2083775;28;20147;-64
2022/06/08 01:29:52;;;;;;;6.05;5.55;;;;;;;;;;2083417;28;20025;-64
2022/06/08 01:31:14;;;;;;;7.78;6.70;;;;;;;;;;2084987;28;20400;-65
2022/06/08 01:32:35;;;;;;;7.53;6.00;;;;;;;;;;2083888;28;20418;-64
2022/06/08 01:34:07;;;;;;;6.70;6.20;;;;;;;;;;2085181;28;20029;-64
2022/06/08 01:35:45;;;;;;;6.88;5.90;;;;;;;;;;2084515;28;20491;-65
2022/06/08 01:37:04;;;;;;;6.38;5.90;;;;;;;;;;2084706;28;20103;-65
2022/06/08 01:38:38;;;;;;;7.70;7.03;;;;;;;;;;2084455;28;20037;-64
2022/06/08 01:39:57;;;;;;;;;;;;;;;;;;2083603;28;20025;-64
2022/06/08 01:41:28;;;;;;;8.68;7.03;;;;;;;;;;2081990;28;19917;-65
2022/06/08 01:43:05;;;;;;;7.40;6.90;;;;;;;;;;2079873;28;20514;-65
2022/06/08 01:45:28;;;;;;;6.93;6.22;;;;;;;;;;2084567;28;20061;-64
2022/06/08 01:46:32;;;;;;;7.88;5.97;;;;;;;;;;2081697;28;20073;-65
2022/06/08 01:47:54;;;;;;;7.57;6.63;;;;;;;;;;2084346;28;20030;-64
2022/06/08 01:49:20;;;;;;;7.25;6.72;;;;;;;;;;2084807;28;20021;-65
2022/06/08 01:50:54;;;;;;;10.15;7.75;;;;;;;;;;2084530;28;20024;-64
2022/06/08 01:52:13;;;;;;;;;;;;;;;;;;2084252;28;20132;-65
2022/06/08 01:53:38;;;;;;;8.20;6.85;;;;;;;;;;2085024;28;19909;-64
2022/06/08 01:55:20;;;;;;;8.00;7.35;;;;;;;;;;2083970;28;20022;-65
2022/06/08 01:56:48;;;;;;;6.43;6.03;;;;;;;;;;2083773;28;20040;-64
2022/06/08 01:58:10;;;;;;;6.40;5.88;;;;;;;;;;2081708;28;20033;-64
2022/06/08 01:59:29;;;;;;;6.75;6.30;;;;;;;;;;2084953;28;20037;-64
2022/06/08 02:00:50;;;;;;;9.00;6.43;;;;;;;;;;2082526;28;20029;-64
2022/06/08 02:02:18;;;;;;;8.23;7.00;;;;;;;;;;2072483;28;20026;-65
2022/06/08 02:03:42;;;;;;;7.15;6.45;;;;;;;;;;2081748;28;20021;-64
2022/06/08 02:05:17;;;;;;;8.15;7.40;;;;;;;;;;2084935;28;21302;-64
2022/06/08 02:06:41;;;;;;;8.60;8.00;;;;;;;;;;2083547;28;20399;-65
2022/06/08 02:08:07;;;;;;;7.07;6.57;;;;;;;;;;2083985;28;20507;-64
2022/06/08 02:09:39;;;;;;;9.60;7.65;;;;;;;;;;2084753;28;20395;-65
2022/06/08 02:11:02;;;;;;;7.68;6.88;;;;;;;;;;2081226;28;20485;-65
2022/06/08 02:12:21;;;;;;;6.88;6.20;;;;;;;;;;2083569;28;20061;-64
2022/06/08 02:13:43;;;;;;;6.75;5.80;;;;;;;;;;2083678;28;20045;-65
2022/06/08 02:15:13;;;;;;;7.78;6.93;;;;;;;;;;2081417;28;20030;-66
2022/06/08 02:16:33;;;;;;;6.47;5.97;;;;;;;;;;2082629;28;20033;-65
2022/06/08 02:17:54;;;;;;;6.82;6.32;;;;;;;;;;2083652;28;20021;-65
2022/06/08 02:19:21;;;;;;;8.23;7.40;;;;;;;;;;2083933;28;20025;-64
2022/06/08 02:20:47;;;;;;;7.00;6.10;;;;;;;;;;2083898;28;20045;-65
2022/06/08 02:22:13;;;;;;;7.43;6.72;;;;;;;;;;2083026;28;20519;-65
2022/06/08 02:23:47;;;;;;;6.53;5.60;;;;;;;;;;2081757;28;20025;-65
2022/06/08 02:25:15;;;;;;;7.75;6.30;;;;;;;;;;2083731;28;20021;-65
2022/06/08 02:26:36;;;;;;;9.68;8.05;;;;;;;;;;2082219;28;20116;-65
2022/06/08 02:28:16;;;;;;;8.50;7.85;;;;;;;;;;2083614;28;20026;-64
2022/06/08 02:29:37;;;;;;;8.82;7.13;;;;;;;;;;2084744;28;20030;-65
2022/06/08 02:30:58;;;;;;;9.93;8.93;;;;;;;;;;2083307;28;20029;-64
2022/06/08 02:35:46;;;;;;;12.32;10.27;;;;;;;;;;2083603;28;20033;-66
2022/06/08 02:37:05;;;;;;;12.93;9.60;;;;;;;;;;2082322;28;20044;-65
2022/06/08 02:38:39;;;;;;;10.50;9.68;;;;;;;;;;2084914;28;20029;-65
2022/06/08 02:40:00;;;;;;;10.85;9.80;;;;;;;;;;2075737;28;20045;-65
2022/06/08 02:41:21;;;;;;;12.60;11.40;;;;;;;;;;2080736;28;20021;-65
2022/06/08 02:42:41;;;;;;;13.77;11.32;;;;;;;;;;2083187;28;20051;-65
2022/06/08 02:44:02;;;;;;;17.35;10.70;;;;;;;;;;2084283;28;20045;-65
2022/06/08 02:45:27;;;;;;;15.65;11.43;;;;;;;;;;2082989;28;20514;-65
2022/06/08 02:46:48;;;;;;;16.23;11.45;;;;;;;;;;2083312;28;20049;-65
2022/06/08 02:48:09;;;;;;;11.10;9.95;;;;;;;;;;2083658;28;20032;-65
2022/06/08 02:49:28;;;;;;;11.50;10.23;;;;;;;;;;2083285;28;20495;-65
2022/06/08 02:50:52;;;;;;;14.88;12.20;;;;;;;;;;2083836;28;20116;-65
2022/06/08 02:52:16;;;;;;;14.10;12.75;;;;;;;;;;2082306;28;20108;-65
2022/06/08 02:53:43;;;;;;;11.82;10.75;;;;;;;;;;2085011;28;20475;-65
2022/06/08 02:55:03;;;;;;;13.23;11.32;;;;;;;;;;2084423;28;20033;-65
2022/06/08 02:56:44;;;;;;;13.27;11.55;;;;;;;;;;2083485;28;20053;-65
2022/06/08 02:58:08;;;;;;;13.52;11.85;;;;;;;;;;2079525;28;20065;-65
2022/06/08 02:59:37;;;;;;;12.90;11.60;;;;;;;;;;2083428;28;20030;-65
2022/06/08 03:00:58;;;;;;;16.70;12.80;;;;;;;;;;2082697;28;20079;-65
2022/06/08 03:02:27;;;;;;;14.80;12.95;;;;;;;;;;2082921;28;20041;-65
2022/06/08 03:03:48;;;;;;;14.05;12.45;;;;;;;;;;2084509;28;20029;-65
2022/06/08 03:05:10;;;;;;;13.82;12.23;;;;;;;;;;2081853;28;20025;-65
2022/06/08 03:06:51;;;;;;;13.23;11.20;;;;;;;;;;2083103;28;20041;-65
2022/06/08 03:08:14;;;;;;;16.83;14.15;;;;;;;;;;2084704;28;20045;-65
2022/06/08 03:09:33;;;;;;;14.98;13.32;;;;;;;;;;2084216;28;20029;-66
2022/06/08 03:10:53;;;;;;;14.50;11.50;;;;;;;;;;2083513;28;20044;-65
2022/06/08 03:12:38;;;;;;;15.95;13.80;;;;;;;;;;2083914;28;20399;-65
2022/06/08 03:14:05;;;;;;;14.32;12.35;;;;;;;;;;2083012;28;20026;-65
2022/06/08 03:15:25;;;;;;;13.52;11.77;;;;;;;;;;2081111;28;20508;-65
2022/06/08 03:16:59;;;;;;;14.02;12.60;;;;;;;;;;2080795;28;20025;-66
2022/06/08 03:18:18;;;;;;;16.48;12.70;;;;;;;;;;2084991;28;20503;-65
2022/06/08 03:19:37;;;;;;;14.73;13.02;;;;;;;;;;2085049;28;20033;-66
2022/06/08 03:20:58;;;;;;;15.77;13.95;;;;;;;;;;2083376;28;20507;-66
2022/06/08 03:22:16;;;;;;;16.33;12.70;;;;;;;;;;2081686;28;20065;-65
2022/06/08 03:23:35;;;;;;;13.07;11.55;;;;;;;;;;2082934;28;20033;-65
2022/06/08 03:24:54;;;;;;;18.65;13.82;;;;;;;;;;2084257;28;20041;-65
2022/06/08 03:26:13;;;;;;;16.77;13.27;;;;;;;;;;2085190;28;20036;-66
2022/06/08 03:27:32;;;;;;;14.18;12.38;;;;;;;;;;2083843;28;20033;-65
2022/06/08 03:28:51;;;;;;;13.38;12.00;;;;;;;;;;2082528;28;20022;-65
2022/06/08 03:30:11;;;;;;;13.98;12.55;;;;;;;;;;2083307;28;20555;-65
2022/06/08 03:31:30;;;;;;;16.48;14.77;;;;;;;;;;2084430;28;20033;-65
2022/06/08 03:32:50;;;;;;;15.57;13.63;;;;;;;;;;2082191;28;20060;-65
2022/06/08 03:34:08;;;;;;;13.40;12.05;;;;;;;;;;2083928;28;20109;-65
2022/06/08 03:35:27;;;;;;;15.23;13.88;;;;;;;;;;2082749;28;20483;-65
2022/06/08 03:36:46;;;;;;;19.23;13.48;;;;;;;;;;2084532;28;20025;-65
2022/06/08 03:38:06;;;;;;;16.33;14.50;;;;;;;;;;2083413;28;20037;-65
2022/06/08 03:39:24;;;;;;;16.15;14.23;;;;;;;;;;2083776;28;20025;-66
2022/06/08 03:40:43;;;;;;;17.98;15.50;;;;;;;;;;2082330;28;20041;-66
2022/06/08 03:42:02;;;;;;;17.10;14.65;;;;;;;;;;2083133;28;20029;-65
2022/06/08 03:43:21;;;;;;;17.92;14.88;;;;;;;;;;2084412;28;20033;-65
2022/06/08 03:44:40;;;;;;;17.20;15.32;;;;;;;;;;2082420;28;20021;-65
2022/06/08 03:46:02;;;;;;;19.42;15.85;;;;;;;;;;2082684;28;20379;-65
2022/06/08 03:47:28;;;;;;;15.95;14.07;;;;;;;;;;2084218;28;20112;-66
2022/06/08 03:48:46;;;;;;;20.70;16.95;;;;;;;;;;2084749;28;20037;-65
2022/06/08 03:50:06;;;;;;;18.60;15.75;;;;;;;;;;2081558;28;20030;-65
2022/06/08 03:51:25;;;;;;;19.23;16.50;;;;;;;;;;2084748;28;20030;-65
2022/06/08 03:52:50;;;;;;;23.70;17.75;;;;;;;;;;2083259;28;20026;-65
2022/06/08 03:54:11;;;;;;;15.30;13.05;;;;;;;;;;2080445;28;22008;-65
2022/06/08 03:55:31;;;;;;;14.82;13.30;;;;;;;;;;2084397;28;20036;-65
2022/06/08 03:56:52;;;;;;;20.42;18.23;;;;;;;;;;2083986;28;20026;-65
2022/06/08 03:58:11;;;;;;;20.63;17.77;;;;;;;;;;2081684;28;20038;-65
2022/06/08 03:59:31;;;;;;;21.67;18.08;;;;;;;;;;2083337;28;20033;-65
2022/06/08 04:00:50;;;;;;;20.60;17.05;;;;;;;;;;2081492;28;20030;-65
2022/06/08 04:02:09;;;;;;;16.73;15.00;;;;;;;;;;2083348;28;20104;-65
2022/06/08 04:03:28;;;;;;;18.73;15.68;;;;;;;;;;2082146;28;20399;-65
2022/06/08 04:04:47;;;;;;;21.00;18.70;;;;;;;;;;2083979;28;20029;-64
2022/06/08 04:06:06;;;;;;;21.83;17.30;;;;;;;;;;2083786;28;20018;-65
2022/06/08 04:07:25;;;;;;;20.05;16.40;;;;;;;;;;2084474;28;20026;-65
2022/06/08 04:08:45;;;;;;;21.13;16.98;;;;;;;;;;2082435;28;20029;-66
2022/06/08 04:10:04;;;;;;;15.80;14.15;;;;;;;;;;2082988;28;20026;-64
2022/06/08 04:11:23;;;;;;;20.30;15.90;;;;;;;;;;2085949;28;20025;-65
2022/06/08 04:12:42;;;;;;;17.80;14.60;;;;;;;;;;2084573;28;20026;-65
2022/06/08 04:14:01;;;;;;;19.42;17.10;;;;;;;;;;2083589;28;20029;-65
2022/06/08 04:16:58;;;;;;;17.98;16.08;;;;;;;;;;2083687;28;20041;-65
2022/06/08 04:18:19;;;;;;;20.73;18.52;;;;;;;;;;2083999;28;20064;-64
2022/06/08 04:19:38;;;;;;;18.80;16.80;;;;;;;;;;2082653;28;20069;-65
2022/06/08 04:20:58;;;;;;;19.25;16.17;;;;;;;;;;2084255;28;20049;-65
2022/06/08 04:22:19;;;;;;;22.15;18.63;;;;;;;;;;2086362;28;20029;-65
2022/06/08 04:23:39;;;;;;;20.38;18.20;;;;;;;;;;2084714;28;20041;-65
2022/06/08 04:25:01;;;;;;;22.58;18.17;;;;;;;;;;2084723;28;20022;-64
2022/06/08 04:26:20;;;;;;;20.30;18.05;;;;;;;;;;2084238;28;20041;-64
2022/06/08 04:27:39;;;;;;;19.05;16.98;;;;;;;;;;2085255;28;20060;-65
2022/06/08 04:28:59;;;;;;;22.80;19.48;;;;;;;;;;2081857;28;20428;-65
2022/06/08 04:30:17;;;;;;;22.60;19.17;;;;;;;;;;2082180;28;20399;-65
2022/06/08 04:31:36;;;;;;;22.40;18.20;;;;;;;;;;2084876;28;20034;-65
2022/06/08 04:32:56;;;;;;;18.60;16.70;;;;;;;;;;2084491;28;20021;-64
2022/06/08 04:34:15;;;;;;;20.02;17.98;;;;;;;;;;2085669;28;20033;-66
2022/06/08 04:35:34;;;;;;;19.02;17.02;;;;;;;;;;2084256;28;20029;-64
2022/06/08 04:36:53;;;;;;;19.35;17.00;;;;;;;;;;2083216;28;20595;-65
2022/06/08 04:38:12;;;;;;;22.25;19.45;;;;;;;;;;2081901;28;20410;-65
2022/06/08 04:39:31;;;;;;;20.52;18.42;;;;;;;;;;2083358;28;20471;-65
2022/06/08 04:40:50;;;;;;;19.13;17.25;;;;;;;;;;2084493;28;20041;-65
2022/06/08 04:42:09;;;;;;;20.55;17.38;;;;;;;;;;2085962;28;20028;-65
2022/06/08 04:43:28;;;;;;;21.50;19.20;;;;;;;;;;2082931;28;20037;-66
2022/06/08 04:44:47;;;;;;;25.17;20.45;;;;;;;;;;2085177;28;20025;-66
2022/06/08 04:46:06;;;;;;;19.10;16.90;;;;;;;;;;2082095;28;20025;-66
2022/06/08 04:47:24;;;;;;;23.35;18.13;;;;;;;;;;2082605;28;20029;-65
2022/06/08 04:48:44;;;;;;;21.10;18.45;;;;;;;;;;2082865;28;20040;-66
2022/06/08 04:50:04;;;;;;;21.40;19.02;;;;;;;;;;2085678;28;20055;-65
2022/06/08 04:51:23;;;;;;;23.48;18.38;;;;;;;;;;2085040;28;20026;-65
2022/06/08 04:52:42;;;;;;;19.25;16.83;;;;;;;;;;2080427;28;20045;-65
2022/06/08 04:54:01;;;;;;;22.98;18.95;;;;;;;;;;2083592;28;20065;-65
2022/06/08 04:55:22;;;;;;;17.48;15.68;;;;;;;;;;2084099;28;20029;-65
2022/06/08 04:56:41;;;;;;;21.48;18.15;;;;;;;;;;2085144;28;20100;-64
2022/06/08 04:58:01;;;;;;;22.65;18.80;;;;;;;;;;2083285;28;20034;-63
2022/06/08 04:59:20;;;;;;;20.65;17.95;;;;;;;;;;2083748;28;20053;-64
2022/06/08 05:00:39;;;;;;;19.23;17.13;;;;;;;;;;2084894;28;20050;-65
2022/06/08 05:01:58;;;;;;;18.63;16.73;;;;;;;;;;2085655;28;20025;-64
2022/06/08 05:03:16;;;;;;;22.40;19.85;;;;;;;;;;2083544;28;20021;-65
2022/06/08 05:04:35;;;;;;;21.20;18.95;;;;;;;;;;2081327;28;20029;-65
2022/06/08 05:05:54;;;;;;;19.50;15.95;;;;;;;;;;2082601;28;20025;-64
2022/06/08 05:07:13;;;;;;;22.05;19.70;;;;;;;;;;2082065;28;20029;-65
2022/06/08 05:08:34;;;;;;;24.40;20.45;;;;;;;;;;2079569;28;20021;-67
2022/06/08 05:09:53;;;;;;;22.60;17.90;;;;;;;;;;2082028;28;20513;-65
2022/06/08 05:11:14;;;;;;;23.88;20.48;;;;;;;;;;2084813;28;20030;-66
2022/06/08 05:12:33;;;;;;;25.13;19.40;;;;;;;;;;2083462;28;20021;-66
2022/06/08 05:13:52;;;;;;;23.63;19.90;;;;;;;;;;2081948;28;20037;-67
2022/06/08 05:15:13;;;;;;;27.90;21.42;;;;;;;;;;2082204;28;20376;-65
2022/06/08 05:16:32;;;;;;;26.63;20.23;;;;;;;;;;2082004;28;20021;-66
2022/06/08 05:17:51;;;;;;;24.55;19.92;;;;;;;;;;2080916;28;20702;-66
2022/06/08 05:19:10;;;;;;;20.88;18.58;;;;;;;;;;2072821;28;20551;-66
2022/06/08 05:20:29;;;;;;;25.98;21.70;;;;;;;;;;2076386;28;20136;-65
2022/06/08 05:21:48;;;;;;;22.95;18.98;;;;;;;;;;2083347;28;20479;-65
2022/06/08 05:23:09;;;;;;;20.52;18.30;;;;;;;;;;2084758;28;20049;-65
2022/06/08 05:24:28;;;;;;;20.65;18.52;;;;;;;;;;2084785;28;20570;-66
2022/06/08 05:25:47;;;;;;;21.95;18.85;;;;;;;;;;2085294;28;20044;-65
2022/06/08 05:27:06;;;;;;;22.20;16.70;;;;;;;;;;2081672;28;20394;-66
2022/06/08 05:28:25;;;;;;;27.63;21.67;;;;;;;;;;2081721;28;20038;-65
2022/06/08 05:29:44;;;;;;;21.40;18.98;;;;;;;;;;2083198;28;20064;-65
2022/06/08 05:31:04;;;;;;;23.55;19.23;;;;;;;;;;2080098;28;20034;-65
2022/06/08 05:32:22;;;;;;;29.92;21.15;;;;;;;;;;2081717;28;20025;-65
2022/06/08 05:33:41;;;;;;;25.75;19.50;;;;;;;;;;2079710;28;20037;-66
2022/06/08 05:35:00;;;;;;;23.88;19.08;;;;;;;;;;2080310;28;20399;-66
2022/06/08 05:36:19;;;;;;;22.15;17.75;;;;;;;;;;2079884;28;20108;-67
2022/06/08 05:37:38;;;;;;;21.48;18.23;;;;;;;;;;2083846;28;20035;-66
2022/06/08 05:38:57;;;;;;;24.80;19.70;;;;;;;;;;2082004;28;20058;-68
2022/06/08 05:40:16;;;;;;;24.73;20.38;;;;;;;;;;2083579;28;20104;-64
2022/06/08 05:41:35;;;;;;;21.20;17.67;;;;;;;;;;2081976;28;20029;-65
2022/06/08 05:42:54;;;;;;;20.92;18.80;;;;;;;;;;2085223;28;20029;-64
2022/06/08 05:44:13;;;;;;;22.58;17.98;;;;;;;;;;2082727;28;20041;-64
2022/06/08 05:45:32;;;;;;;19.42;17.35;;;;;;;;;;2081392;28;20045;-65
2022/06/08 05:46:52;;;;;;;21.10;18.83;;;;;;;;;;2087820;28;20029;-65
2022/06/08 05:48:10;;;;;;;19.23;17.23;;;;;;;;;;2085928;28;20029;-66
2022/06/08 05:49:33;;;;;;;25.75;18.13;;;;;;;;;;2084149;28;20029;-66
2022/06/08 05:50:52;;;;;;;19.15;16.17;;;;;;;;;;2081601;28;20052;-65
2022/06/08 05:52:11;;;;;;;17.70;15.80;;;;;;;;;;2081438;28;20021;-66
2022/06/08 05:53:29;;;;;;;18.55;16.23;;;;;;;;;;2083839;28;20074;-67
2022/06/08 05:54:48;;;;;;;19.52;17.42;;;;;;;;;;2079219;28;20034;-66
2022/06/08 05:56:07;;;;;;;22.58;17.05;;;;;;;;;;2084093;28;20124;-65
2022/06/08 05:57:26;;;;;;;20.02;18.05;;;;;;;;;;2081667;28;20033;-66
2022/06/08 05:58:45;;;;;;;19.55;17.35;;;;;;;;;;2079287;28;20029;-66
2022/06/08 06:00:06;;;;;;;17.77;15.88;;;;;;;;;;2079875;28;20029;-66
2022/06/08 06:01:25;;;;;;;18.90;17.00;;;;;;;;;;2082906;28;20034;-66
2022/06/08 06:02:44;;;;;;;19.30;17.27;;;;;;;;;;2082218;28;20025;-66
2022/06/08 06:04:05;;;;;;;18.73;16.88;;;;;;;;;;2084360;28;20029;-65
2022/06/08 06:05:26;;;;;;;19.75;16.00;;;;;;;;;;2079541;28;20033;-66
2022/06/08 06:06:48;;;;;;;16.75;15.07;;;;;;;;;;2080781;28;20037;-65
2022/06/08 06:08:08;;;;;;;16.90;14.48;;;;;;;;;;2083419;28;20099;-65
2022/06/08 06:09:32;;;;;;;18.08;14.70;;;;;;;;;;2082383;28;20025;-65
2022/06/08 06:10:51;;;;;;;15.65;14.05;;;;;;;;;;2085306;28;20025;-64
2022/06/08 06:12:10;;;;;;;17.90;14.52;;;;;;;;;;2084423;28;20029;-66
2022/06/08 06:13:29;;;;;;;23.85;16.65;;;;;;;;;;2083602;28;20032;-65
2022/06/08 06:14:48;;;;;;;18.48;16.50;;;;;;;;;;2080941;28;20052;-66
2022/06/08 06:16:09;;;;;;;16.52;14.88;;;;;;;;;;2084606;28;20025;-66
2022/06/08 06:17:28;;;;;;;16.13;14.43;;;;;;;;;;2084164;28;20029;-66
2022/06/08 06:18:47;;;;;;;17.50;14.45;;;;;;;;;;2082788;28;20527;-65
2022/06/08 06:20:06;;;;;;;19.02;13.63;;;;;;;;;;2082230;28;20049;-66
2022/06/08 06:21:25;;;;;;;13.45;12.15;;;;;;;;;;2082361;28;20033;-66
2022/06/08 06:22:44;;;;;;;16.08;13.85;;;;;;;;;;2079420;28;20539;-66
2022/06/08 06:24:06;;;;;;;17.23;12.63;;;;;;;;;;2079183;28;20071;-65
2022/06/08 06:25:25;;;;;;;14.27;12.85;;;;;;;;;;2082556;28;20038;-65
2022/06/08 06:26:44;;;;;;;14.68;13.15;;;;;;;;;;2083484;28;20017;-65
2022/06/08 06:28:03;;;;;;;14.38;12.85;;;;;;;;;;2084517;28;20495;-65
2022/06/08 06:29:22;;;;;;;12.63;11.40;;;;;;;;;;2081661;28;20029;-65
2022/06/08 06:30:41;;;;;;;14.45;13.10;;;;;;;;;;2080081;28;20494;-66
2022/06/08 06:32:02;;;;;;;13.93;12.52;;;;;;;;;;2078719;28;20081;-66
2022/06/08 06:33:21;;;;;;;14.40;12.90;;;;;;;;;;2083171;28;20526;-65
2022/06/08 06:34:39;;;;;;;12.73;11.27;;;;;;;;;;2081610;28;20487;-65
2022/06/08 06:35:58;;;;;;;14.10;12.60;;;;;;;;;;2082719;28;20125;-66
2022/06/08 06:37:17;;;;;;;16.17;13.00;;;;;;;;;;2078707;28;20033;-65
2022/06/08 06:38:36;;;;;;;15.45;12.10;;;;;;;;;;2078826;28;20041;-53
2022/06/08 06:39:55;;;;;;;14.18;11.93;;;;;;;;;;2082017;28;20495;-50
2022/06/08 06:41:15;;;;;;;13.75;12.48;;;;;;;;;;2080633;28;20092;-53
2022/06/08 06:42:35;;;;;;;14.40;12.45;;;;;;;;;;2081380;28;20135;-52
2022/06/08 06:43:53;;;;;;;14.80;12.68;;;;;;;;;;2084092;28;20026;-52
2022/06/08 06:45:13;;;;;;;17.50;12.23;;;;;;;;;;2081964;28;20032;-52
2022/06/08 06:46:32;;;;;;;12.20;11.00;;;;;;;;;;2076360;28;20038;-54
2022/06/08 06:47:51;;;;;;;15.35;12.13;;;;;;;;;;2082269;28;20484;-55
2022/06/08 06:49:10;;;;;;;13.60;12.20;;;;;;;;;;2084269;28;20025;-50
2022/06/08 06:50:29;;;;;;;14.15;12.75;;;;;;;;;;2080067;28;20532;-50
2022/06/08 06:51:48;;;;;;;18.15;13.13;;;;;;;;;;2078860;28;20034;-51
2022/06/08 06:53:08;;;;;;;16.23;13.30;;;;;;;;;;2079970;28;20414;-52
2022/06/08 06:54:27;;;;;;;14.18;12.90;;;;;;;;;;2084063;28;20399;-66
2022/06/08 06:55:46;;;;;;;13.85;12.50;;;;;;;;;;2080985;28;20037;-67
2022/06/08 06:57:05;;;;;;;12.48;11.18;;;;;;;;;;2079729;28;20045;-66
2022/06/08 06:58:24;;;;;;;14.23;12.10;;;;;;;;;;2082203;28;20077;-66
2022/06/08 06:59:43;;;;;;;15.55;13.23;;;;;;;;;;2083448;28;20030;-66
2022/06/08 07:01:03;;;;;;;15.25;11.82;;;;;;;;;;2081973;28;20037;-65
2022/06/08 07:02:22;;;;;;;13.35;11.13;;;;;;;;;;2084693;28;20402;-66
2022/06/08 07:03:41;;;;;;;17.33;12.25;;;;;;;;;;2084619;28;20033;-66
2022/06/08 07:04:59;;;;;;;12.85;11.48;;;;;;;;;;2083194;28;20067;-66
2022/06/08 07:06:18;;;;;;;14.82;11.18;;;;;;;;;;2080681;28;20029;-66
2022/06/08 07:07:37;;;;;;;12.30;11.02;;;;;;;;;;2084557;28;20034;-66
2022/06/08 07:08:59;;;;;;;12.27;11.10;;;;;;;;;;2077985;28;20033;-66
2022/06/08 07:10:18;;;;;;;11.20;10.10;;;;;;;;;;2084075;28;20017;-66
2022/06/08 07:11:45;;;;;;;13.95;10.38;;;;;;;;;;2080808;28;20025;-67
2022/06/08 07:13:05;;;;;;;11.27;10.18;;;;;;;;;;2080163;28;20028;-66
2022/06/08 07:14:23;;;;;;;11.55;10.32;;;;;;;;;;2083424;28;20030;-66
2022/06/08 07:15:42;;;;;;;13.57;10.25;;;;;;;;;;2082047;28;20022;-66
2022/06/08 07:17:01;;;;;;;11.38;10.20;;;;;;;;;;2084815;28;20491;-65
2022/06/08 07:18:20;;;;;;;10.40;9.38;;;;;;;;;;2080926;28;20518;-67
2022/06/08 07:19:39;;;;;;;10.85;9.75;;;;;;;;;;2079427;28;20504;-65
2022/06/08 07:20:58;;;;;;;11.25;9.38;;;;;;;;;;2078973;28;20062;-67
2022/06/08 07:22:17;;;;;;;9.90;8.90;;;;;;;;;;2080046;28;20121;-66
2022/06/08 07:23:36;;;;;;;10.25;9.35;;;;;;;;;;2082560;28;20061;-66
2022/06/08 07:24:55;;;;;;;10.63;9.48;;;;;;;;;;2082725;28;20475;-66
2022/06/08 07:26:14;;;;;;;10.88;9.88;;;;;;;;;;2076324;28;20029;-66
2022/06/08 07:27:33;;;;;;;10.88;9.88;;;;;;;;;;2079596;28;20492;-67
2022/06/08 07:28:52;;;;;;;11.13;10.02;;;;;;;;;;2082733;28;20064;-66
2022/06/08 07:30:11;;;;;;;10.43;9.52;;;;;;;;;;2082666;28;20037;-66
2022/06/08 07:31:30;;;;;;;9.80;9.00;;;;;;;;;;2083077;28;20026;-66
2022/06/08 07:32:50;;;;;;;10.07;7.90;;;;;;;;;;2083676;28;20029;-66
2022/06/08 07:34:13;;;;;;;10.95;9.85;;;;;;;;;;2083649;28;20029;-66
2022/06/08 07:35:32;;;;;;;10.20;9.10;;;;;;;;;;2083037;28;20029;-66
2022/06/08 07:36:51;;;;;;;11.90;10.65;;;;;;;;;;2080848;28;20030;-67
2022/06/08 07:38:10;;;;;;;10.18;9.18;;;;;;;;;;2083466;28;20033;-65
2022/06/08 07:39:29;;;;;;;9.88;8.98;;;;;;;;;;2081901;28;20026;-66
2022/06/08 07:40:48;;;;;;;10.20;8.93;;;;;;;;;;2078816;28;20487;-66
2022/06/08 07:42:07;;;;;;;11.38;9.00;;;;;;;;;;2082680;28;20633;-65
2022/06/08 07:43:26;;;;;;;9.75;8.90;;;;;;;;;;2082045;28;20029;-67
2022/06/08 07:44:45;;;;;;;12.23;8.00;;;;;;;;;;2085305;28;20032;-66
2022/06/08 07:46:05;;;;;;;9.20;7.25;;;;;;;;;;2084744;28;20029;-66
2022/06/08 07:47:23;;;;;;;7.00;6.32;;;;;;;;;;2085188;28;20033;-66
2022/06/08 07:50:20;;;;;;;9.00;6.65;;;;;;;;;;2085171;28;20041;-66
2022/06/08 07:51:39;;;;;;;7.72;7.07;;;;;;;;;;2084054;28;20041;-66
2022/06/08 07:52:58;;;;;;;8.45;7.75;;;;;;;;;;2085446;28;20108;-66
2022/06/08 07:54:17;;;;;;;10.20;7.50;;;;;;;;;;2084590;28;20030;-65
2022/06/08 07:55:37;;;;;;;7.68;7.00;;;;;;;;;;2085979;28;20399;-65
2022/06/08 07:56:56;;;;;;;7.00;6.47;;;;;;;;;;2084916;28;20041;-66
2022/06/08 07:58:15;;;;;;;7.78;7.18;;;;;;;;;;2082999;28;20033;-66
2022/06/08 07:59:36;;;;;;;7.60;7.00;;;;;;;;;;2085760;28;20523;-66
2022/06/08 08:00:57;;;;;;;8.15;7.50;;;;;;;;;;2083560;28;20033;-66
2022/06/08 08:02:16;;;;;;;7.50;6.90;;;;;;;;;;2082232;28;20112;-66
2022/06/08 08:03:34;;;;;;;6.82;6.43;;;;;;;;;;2083343;28;20028;-66
2022/06/08 08:04:55;;;;;;;6.60;6.10;;;;;;;;;;2084878;28;20472;-66